createdAt,value
2023-07-18T00:00:26.774Z,102218.91
2023-07-18T00:03:07.390Z,102215.34
2023-07-18T00:05:47.840Z,102219.44
2023-07-18T00:08:27.677Z,102218.44
2023-07-18T00:11:10.400Z,102217.59
2023-07-18T00:13:53.758Z,102213.16
2023-07-18T00:16:34.124Z,102207.47
2023-07-18T00:19:14.203Z,102206.59
2023-07-18T00:21:53.822Z,102205.19
2023-07-18T00:24:33.367Z,102200.31
2023-07-18T00:27:17.932Z,102206.91
2023-07-18T00:30:11.206Z,102204.91
2023-07-18T00:32:52.889Z,102201.47
2023-07-18T00:35:33.014Z,102193.78
2023-07-18T00:38:15.805Z,102199.94
2023-07-18T00:40:55.348Z,102196.91
2023-07-18T00:43:36.059Z,102201.47
2023-07-18T00:46:19.993Z,102197.38
2023-07-18T00:48:59.996Z,102192.94
2023-07-18T00:51:39.619Z,102190.66
2023-07-18T00:54:28.713Z,102194.38
2023-07-18T00:57:13.849Z,102201.81
2023-07-18T00:59:54.205Z,102207.94
2023-07-18T01:02:45.036Z,102205.66
2023-07-18T01:05:27.758Z,102191.50
2023-07-18T01:08:07.798Z,102193.13
2023-07-18T01:10:47.777Z,102192.84
2023-07-18T01:13:27.410Z,102200.53
2023-07-18T01:16:07.186Z,102198.44
2023-07-18T01:18:46.677Z,102199.72
2023-07-18T01:21:26.469Z,102204.56
2023-07-18T01:24:07.053Z,102203.41
2023-07-18T01:26:46.694Z,102198.44
2023-07-18T01:29:36.254Z,102201.13
2023-07-18T01:32:15.982Z,102201.84
2023-07-18T01:34:55.563Z,102198.13
2023-07-18T01:40:21.829Z,102204.72
2023-07-18T01:43:02.554Z,102193.72
2023-07-18T01:45:42.315Z,102179.88
2023-07-18T01:48:22.909Z,102189.28
2023-07-18T01:51:02.565Z,102182.31
2023-07-18T01:53:42.164Z,102181.59
2023-07-18T01:56:31.318Z,102179.88
2023-07-18T01:59:11.031Z,102176.03
2023-07-18T02:01:52.766Z,102184.88
2023-07-18T02:04:32.457Z,102188.59
2023-07-18T02:07:12.090Z,102186.72
2023-07-18T02:09:52.168Z,102181.88
2023-07-18T02:12:31.824Z,102173.47
2023-07-18T02:15:14.594Z,102175.16
2023-07-18T02:17:54.352Z,102167.59
2023-07-18T02:20:34.012Z,102170.00
2023-07-18T02:23:13.683Z,102176.16
2023-07-18T02:25:53.308Z,102172.16
2023-07-18T02:28:32.969Z,102175.38
2023-07-18T02:31:12.597Z,102168.97
2023-07-18T02:33:52.215Z,102176.56
2023-07-18T02:36:34.656Z,102169.16
2023-07-18T02:39:14.177Z,102176.00
2023-07-18T02:41:53.844Z,102178.91
2023-07-18T02:44:33.333Z,102170.94
2023-07-18T02:47:12.923Z,102169.72
2023-07-18T02:49:52.603Z,102165.72
2023-07-18T02:52:32.178Z,102165.44
2023-07-18T02:55:12.003Z,102161.63
2023-07-18T02:57:51.676Z,102150.81
2023-07-18T03:00:35.130Z,102155.78
2023-07-18T03:03:14.851Z,102155.06
2023-07-18T03:05:55.958Z,102156.78
2023-07-18T03:08:37.821Z,102158.34
2023-07-18T03:11:17.842Z,102161.91
2023-07-18T03:13:57.625Z,102162.66
2023-07-18T03:16:37.363Z,102174.72
2023-07-18T03:19:17.033Z,102164.75
2023-07-18T03:21:56.273Z,102176.59
2023-07-18T03:24:36.905Z,102168.16
2023-07-18T03:27:16.063Z,102170.63
2023-07-18T03:29:55.715Z,102165.06
2023-07-18T03:32:35.973Z,102169.47
2023-07-18T03:35:15.787Z,102169.47
2023-07-18T03:37:56.589Z,102171.03
2023-07-18T03:40:36.250Z,102171.03
2023-07-18T03:43:16.403Z,102174.19
2023-07-18T03:46:06.679Z,102183.41
2023-07-18T03:48:46.356Z,102177.16
2023-07-18T03:51:27.414Z,102186.25
2023-07-18T03:54:06.104Z,102180.16
2023-07-18T03:56:45.702Z,102178.44
2023-07-18T03:59:25.416Z,102178.44
2023-07-18T04:02:05.108Z,102174.59
2023-07-18T04:04:44.665Z,102176.44
2023-07-18T04:07:24.269Z,102169.75
2023-07-18T04:10:05.241Z,102167.91
2023-07-18T04:12:45.854Z,102162.66
2023-07-18T04:15:25.577Z,102157.94
2023-07-18T04:18:05.675Z,102159.06
2023-07-18T04:20:45.240Z,102160.34
2023-07-18T04:23:24.910Z,102154.53
2023-07-18T04:26:06.412Z,102146.25
2023-07-18T04:28:46.124Z,102147.69
2023-07-18T04:31:25.936Z,102143.97
2023-07-18T04:34:05.388Z,102146.13
2023-07-18T04:36:45.621Z,102147.13
2023-07-18T04:39:25.537Z,102148.50
2023-07-18T04:42:08.029Z,102148.09
2023-07-18T04:44:47.759Z,102147.91
2023-07-18T04:50:11.994Z,102146.53
2023-07-18T04:52:53.160Z,102140.97
2023-07-18T04:55:32.690Z,102149.47
2023-07-18T04:58:12.458Z,102144.56
2023-07-18T05:00:52.588Z,102142.19
2023-07-18T05:03:41.232Z,102144.38
2023-07-18T05:06:20.398Z,102145.66
2023-07-18T05:09:00.032Z,102137.53
2023-07-18T05:11:39.495Z,102139.88
2023-07-18T05:14:19.101Z,102133.41
2023-07-18T05:16:58.739Z,102134.75
2023-07-18T05:19:38.383Z,102130.09
2023-07-18T05:22:29.654Z,102125.75
2023-07-18T05:25:11.377Z,102119.09
2023-07-18T05:27:51.168Z,102138.13
2023-07-18T05:30:30.858Z,102118.56
2023-07-18T05:33:21.681Z,102121.81
2023-07-18T05:36:01.370Z,102117.56
2023-07-18T05:38:41.524Z,102124.75
2023-07-18T05:41:26.181Z,102119.47
2023-07-18T05:44:06.182Z,102121.94
2023-07-18T05:46:45.876Z,102120.75
2023-07-18T05:49:25.556Z,102119.19
2023-07-18T05:52:05.745Z,102117.06
2023-07-18T05:54:46.472Z,102124.28
2023-07-18T05:57:28.961Z,102126.16
2023-07-18T06:00:11.645Z,102126.75
2023-07-18T06:02:55.565Z,102123.59
2023-07-18T06:05:33.802Z,102121.53
2023-07-18T06:08:14.246Z,102131.31
2023-07-18T06:11:02.464Z,102132.25
2023-07-18T06:13:45.076Z,102138.59
2023-07-18T06:16:25.882Z,102139.19
2023-07-18T06:19:17.117Z,102144.88
2023-07-18T06:21:56.723Z,102137.53
2023-07-18T06:24:39.352Z,102140.63
2023-07-18T06:27:26.295Z,102144.72
2023-07-18T06:30:06.953Z,102143.91
2023-07-18T06:32:46.596Z,102143.81
2023-07-18T06:35:26.990Z,102138.16
2023-07-18T06:38:06.741Z,102137.97
2023-07-18T06:40:51.923Z,102143.88
2023-07-18T06:43:31.714Z,102139.22
2023-07-18T06:46:11.423Z,102135.84
2023-07-18T06:48:51.121Z,102127.72
2023-07-18T06:51:30.866Z,102129.19
2023-07-18T06:54:16.040Z,102130.81
2023-07-18T06:56:56.371Z,102141.53
2023-07-18T06:59:36.522Z,102139.66
2023-07-18T07:02:24.913Z,102128.72
2023-07-18T07:05:13.222Z,102136.25
2023-07-18T07:08:02.213Z,102135.09
2023-07-18T07:10:50.716Z,102141.47
2023-07-18T07:13:40.439Z,102135.88
2023-07-18T07:16:28.644Z,102141.91
2023-07-18T07:19:18.457Z,102138.97
2023-07-18T07:22:07.103Z,102139.66
2023-07-18T07:24:58.467Z,102134.44
2023-07-18T07:27:50.295Z,102127.56
2023-07-18T07:30:38.695Z,102124.25
2023-07-18T07:33:27.206Z,102124.84
2023-07-18T07:36:16.478Z,102123.28
2023-07-18T07:39:05.074Z,102121.47
2023-07-18T07:41:53.438Z,102119.59
2023-07-18T07:44:41.579Z,102117.16
2023-07-18T07:47:29.788Z,102116.22
2023-07-18T07:50:20.469Z,102117.63
2023-07-18T07:53:08.732Z,102118.78
2023-07-18T07:55:57.246Z,102120.19
2023-07-18T07:58:57.393Z,102118.59
2023-07-18T08:01:34.761Z,102106.50
2023-07-18T08:04:24.434Z,102101.41
2023-07-18T08:07:12.429Z,102099.22
2023-07-18T08:10:02.203Z,102101.56
2023-07-18T08:12:47.358Z,102101.47
2023-07-18T08:15:35.636Z,102097.41
2023-07-18T08:18:24.030Z,102090.88
2023-07-18T08:21:12.777Z,102088.81
2023-07-18T08:24:00.896Z,102085.75
2023-07-18T08:26:49.061Z,102095.66
2023-07-18T08:29:37.275Z,102085.75
2023-07-18T08:32:28.157Z,102080.00
2023-07-18T08:35:14.617Z,102085.81
2023-07-18T08:38:03.256Z,102088.28
2023-07-18T08:40:51.798Z,102078.34
2023-07-18T08:43:21.798Z,102085.94
2023-07-18T08:45:51.511Z,102086.81
2023-07-18T08:48:27.429Z,102084.72
2023-07-18T08:51:16.324Z,102084.34
2023-07-18T08:54:04.604Z,102082.16
2023-07-18T08:56:53.352Z,102076.72
2023-07-18T08:59:42.395Z,102081.16
2023-07-18T09:02:31.204Z,102073.78
2023-07-18T09:05:40.253Z,102061.81
2023-07-18T09:08:28.376Z,102071.53
2023-07-18T09:11:22.236Z,102065.63
2023-07-18T09:14:09.596Z,102053.34
2023-07-18T09:17:00.826Z,102063.69
2023-07-18T09:19:50.144Z,102058.72
2023-07-18T09:22:41.585Z,102060.19
2023-07-18T09:25:29.973Z,102057.88
2023-07-18T09:28:18.175Z,102060.41
2023-07-18T09:31:24.937Z,102062.72
2023-07-18T09:34:14.134Z,102062.72
2023-07-18T09:37:05.277Z,102048.97
2023-07-18T09:39:55.716Z,102044.28
2023-07-18T09:42:47.981Z,102053.59
2023-07-18T09:45:36.945Z,102050.44
2023-07-18T09:48:25.608Z,102045.75
2023-07-18T09:51:22.881Z,102047.00
2023-07-18T09:54:13.000Z,102048.69
2023-07-18T09:57:06.648Z,102041.66
2023-07-18T09:59:59.459Z,102043.38
2023-07-18T10:02:48.044Z,102037.91
2023-07-18T10:05:36.551Z,102036.22
2023-07-18T10:08:24.945Z,102032.09
2023-07-18T10:11:13.376Z,102034.91
2023-07-18T10:14:03.845Z,102024.97
2023-07-18T10:17:06.339Z,102036.50
2023-07-18T10:19:54.613Z,102030.69
2023-07-18T10:22:54.809Z,102030.44
2023-07-18T10:25:57.286Z,102024.53
2023-07-18T10:28:49.937Z,102014.78
2023-07-18T10:31:39.416Z,102011.94
2023-07-18T10:34:28.187Z,101993.75
2023-07-18T10:37:41.499Z,102000.44
2023-07-18T10:40:40.545Z,101993.16
2023-07-18T10:43:28.543Z,101989.63
2023-07-18T10:46:17.702Z,101984.69
2023-07-18T10:49:05.996Z,101976.59
2023-07-18T10:51:58.235Z,101981.75
2023-07-18T10:55:14.112Z,101970.28
2023-07-18T10:58:02.315Z,101968.50
2023-07-18T11:00:52.518Z,101964.41
2023-07-18T11:03:24.163Z,101972.06
2023-07-18T11:05:54.985Z,101968.78
2023-07-18T11:08:32.111Z,101963.47
2023-07-18T11:11:06.336Z,101958.94
2023-07-18T11:13:39.710Z,101956.38
2023-07-18T11:16:10.686Z,101950.56
2023-07-18T11:18:48.052Z,101951.72
2023-07-18T11:21:20.661Z,101956.28
2023-07-18T11:23:50.892Z,101959.59
2023-07-18T11:26:39.016Z,101966.91
2023-07-18T11:29:30.602Z,101961.00
2023-07-18T11:32:35.187Z,101954.09
2023-07-18T11:35:25.404Z,101946.75
2023-07-18T11:38:13.580Z,101935.97
2023-07-18T11:41:02.184Z,101947.63
2023-07-18T11:43:55.953Z,101952.78
2023-07-18T11:46:48.672Z,101943.88
2023-07-18T11:49:38.349Z,101939.75
2023-07-18T11:52:26.507Z,101934.31
2023-07-18T11:55:16.707Z,101925.22
2023-07-18T11:57:58.883Z,101930.53
2023-07-18T12:00:48.014Z,101930.16
2023-07-18T12:03:37.777Z,101927.78
2023-07-18T12:06:27.097Z,101920.56
2023-07-18T12:09:16.542Z,101916.47
2023-07-18T12:12:05.405Z,101913.41
2023-07-18T12:14:54.443Z,101909.09
2023-07-18T12:17:44.172Z,101910.97
2023-07-18T12:20:32.426Z,101902.97
2023-07-18T12:23:20.580Z,101902.53
2023-07-18T12:26:08.673Z,101899.22
2023-07-18T12:28:56.871Z,101907.19
2023-07-18T12:31:53.741Z,101895.75
2023-07-18T12:34:43.543Z,101889.16
2023-07-18T12:37:58.956Z,101889.66
2023-07-18T12:41:19.104Z,101895.13
2023-07-18T12:52:10.525Z,101882.94
2023-07-18T12:55:04.336Z,101891.97
2023-07-18T12:58:18.815Z,101889.03
2023-07-18T13:01:00.654Z,101876.72
2023-07-18T13:03:44.871Z,101874.28
2023-07-18T13:06:24.633Z,101869.47
2023-07-18T13:09:05.320Z,101869.75
2023-07-18T13:11:45.880Z,101863.88
2023-07-18T13:14:26.030Z,101854.94
2023-07-18T13:17:06.224Z,101855.38
2023-07-18T13:19:46.100Z,101857.63
2023-07-18T13:22:26.716Z,101849.22
2023-07-18T13:25:13.566Z,101849.66
2023-07-18T13:27:54.845Z,101848.38
2023-07-18T13:30:35.658Z,101852.56
2023-07-18T13:33:15.243Z,101844.78
2023-07-18T13:35:43.560Z,101828.91
2023-07-18T13:38:12.386Z,101819.69
2023-07-18T13:40:52.050Z,101822.47
2023-07-18T13:43:34.054Z,101802.63
2023-07-18T13:46:17.146Z,101804.56
2023-07-18T13:48:58.066Z,101793.72
2023-07-18T13:51:36.774Z,101796.53
2023-07-18T13:54:16.631Z,101789.53
2023-07-18T13:56:56.315Z,101788.41
2023-07-18T13:59:37.729Z,101792.28
2023-07-18T14:02:18.034Z,101789.75
2023-07-18T14:05:00.885Z,101784.19
2023-07-18T14:07:40.808Z,101781.59
2023-07-18T14:10:20.432Z,101779.19
2023-07-18T14:13:00.231Z,101779.75
2023-07-18T14:15:49.726Z,101777.19
2023-07-18T14:18:37.870Z,101776.16
2023-07-18T14:21:27.390Z,101770.09
2023-07-18T14:23:56.024Z,101766.50
2023-07-18T14:26:40.060Z,101760.91
2023-07-18T14:29:28.493Z,101760.09
2023-07-18T14:32:18.938Z,101751.84
2023-07-18T14:34:58.706Z,101752.72
2023-07-18T14:37:46.985Z,101743.97
2023-07-18T14:40:35.332Z,101739.28
2023-07-18T14:43:35.449Z,101745.34
2023-07-18T14:46:24.323Z,101748.06
2023-07-18T14:49:12.482Z,101744.50
2023-07-18T14:52:00.900Z,101746.63
2023-07-18T14:54:49.122Z,101734.34
2023-07-18T14:57:37.347Z,101741.22
2023-07-18T15:00:20.574Z,101741.69
2023-07-18T15:03:00.344Z,101740.97
2023-07-18T15:05:48.551Z,101734.59
2023-07-18T15:08:31.194Z,101737.38
2023-07-18T15:11:22.492Z,101743.50
2023-07-18T15:14:10.720Z,101744.47
2023-07-18T15:17:01.470Z,101734.84
2023-07-18T15:19:44.013Z,101733.06
2023-07-18T15:22:33.406Z,101732.81
2023-07-18T15:25:17.198Z,101739.19
2023-07-18T15:28:06.179Z,101745.78
2023-07-18T15:30:45.801Z,101740.25
2023-07-18T15:33:35.712Z,101732.28
2023-07-18T15:36:17.754Z,101733.16
2023-07-18T15:39:05.845Z,101731.91
2023-07-18T15:41:53.980Z,101730.66
2023-07-18T15:44:42.251Z,101731.84
2023-07-18T15:47:27.258Z,101724.81
2023-07-18T15:50:07.883Z,101717.09
2023-07-18T15:52:56.281Z,101720.88
2023-07-18T15:55:44.689Z,101711.88
2023-07-18T15:58:32.903Z,101713.03
2023-07-18T16:01:12.532Z,101706.44
2023-07-18T16:04:03.387Z,101714.63
2023-07-18T16:06:44.584Z,101711.16
2023-07-18T16:09:31.425Z,101704.78
2023-07-18T16:12:20.762Z,101703.16
2023-07-18T16:15:07.319Z,101697.03
2023-07-18T16:17:57.437Z,101695.81
2023-07-18T16:20:39.915Z,101689.38
2023-07-18T16:23:19.681Z,101687.84
2023-07-18T16:26:01.525Z,101688.25
2023-07-18T16:28:41.242Z,101674.13
2023-07-18T16:31:24.438Z,101677.25
2023-07-18T16:34:04.064Z,101671.34
2023-07-18T16:36:46.760Z,101670.75
2023-07-18T16:39:26.678Z,101671.00
2023-07-18T16:42:23.516Z,101667.03
2023-07-18T16:44:49.881Z,101675.81
2023-07-18T16:47:30.200Z,101664.16
2023-07-18T16:50:17.619Z,101663.97
2023-07-18T16:52:57.493Z,101664.94
2023-07-18T16:55:37.449Z,101654.81
2023-07-18T16:58:17.413Z,101662.13
2023-07-18T17:00:59.124Z,101659.59
2023-07-18T17:03:38.801Z,101652.25
2023-07-18T17:06:27.066Z,101651.88
2023-07-18T17:09:09.769Z,101648.38
2023-07-18T17:11:58.070Z,101649.75
2023-07-18T17:14:46.290Z,101640.00
2023-07-18T17:17:34.795Z,101639.34
2023-07-18T17:20:19.461Z,101635.28
2023-07-18T17:23:05.813Z,101636.56
2023-07-18T17:25:47.392Z,101629.97
2023-07-18T17:28:27.401Z,101632.81
2023-07-18T17:31:15.059Z,101636.13
2023-07-18T17:33:54.704Z,101637.41
2023-07-18T17:36:45.255Z,101640.88
2023-07-18T17:39:27.867Z,101645.97
2023-07-18T17:42:08.691Z,101629.44
2023-07-18T17:44:57.724Z,101637.81
2023-07-18T17:47:38.717Z,101637.50
2023-07-18T17:50:18.442Z,101633.84
2023-07-18T17:52:58.069Z,101634.22
2023-07-18T17:55:37.614Z,101641.03
2023-07-18T17:58:17.305Z,101637.34
2023-07-18T18:00:57.779Z,101624.78
2023-07-18T18:03:39.624Z,101641.72
2023-07-18T18:06:22.616Z,101636.41
2023-07-18T18:09:07.838Z,101641.88
2023-07-18T18:11:47.783Z,101645.56
2023-07-18T18:14:27.497Z,101644.19
2023-07-18T18:17:07.684Z,101638.38
2023-07-18T18:19:47.858Z,101632.69
2023-07-18T18:22:27.029Z,101631.72
2023-07-18T18:25:07.077Z,101633.69
2023-07-18T18:27:57.068Z,101642.47
2023-07-18T18:30:45.772Z,101637.66
2023-07-18T18:33:28.609Z,101641.94
2023-07-18T18:36:16.930Z,101643.25
2023-07-18T18:38:56.608Z,101647.09
2023-07-18T18:41:37.278Z,101650.66
2023-07-18T18:44:17.180Z,101645.63
2023-07-18T18:46:57.529Z,101641.00
2023-07-18T18:49:47.848Z,101633.59
2023-07-18T18:52:32.160Z,101634.44
2023-07-18T18:55:20.264Z,101637.41
2023-07-18T18:57:56.793Z,101643.75
2023-07-18T19:00:36.764Z,101649.00
2023-07-18T19:03:16.776Z,101644.59
2023-07-18T19:05:57.246Z,101647.97
2023-07-18T19:08:47.796Z,101647.56
2023-07-18T19:11:27.734Z,101638.91
2023-07-18T19:14:16.445Z,101644.16
2023-07-18T19:16:56.164Z,101638.47
2023-07-18T19:19:41.069Z,101637.41
2023-07-18T19:22:20.892Z,101641.00
2023-07-18T19:25:02.052Z,101634.19
2023-07-18T19:27:44.729Z,101645.81
2023-07-18T19:30:26.201Z,101647.25
2023-07-18T19:33:14.445Z,101639.88
2023-07-18T19:36:02.801Z,101644.09
2023-07-18T19:38:50.704Z,101630.31
2023-07-18T19:41:40.297Z,101625.00
2023-07-18T19:44:21.876Z,101639.53
2023-07-18T19:47:03.381Z,101645.19
2023-07-18T19:49:43.269Z,101652.78
2023-07-18T19:52:23.313Z,101656.59
2023-07-18T19:55:12.494Z,101654.50
2023-07-18T19:57:52.142Z,101659.13
2023-07-18T20:00:31.976Z,101649.84
2023-07-18T20:03:11.927Z,101660.19
2023-07-18T20:05:51.573Z,101652.59
2023-07-18T20:08:31.539Z,101653.03
2023-07-18T20:11:11.212Z,101641.59
2023-07-18T20:13:54.216Z,101634.38
2023-07-18T20:16:35.637Z,101631.63
2023-07-18T20:19:15.322Z,101632.41
2023-07-18T20:22:03.549Z,101622.88
2023-07-18T20:24:46.064Z,101616.31
2023-07-18T20:27:38.899Z,101603.44
2023-07-18T20:30:27.100Z,101601.66
2023-07-18T20:33:11.613Z,101603.81
2023-07-18T20:35:54.618Z,101601.00
2023-07-18T20:38:34.279Z,101601.84
2023-07-18T20:41:19.629Z,101610.06
2023-07-18T20:43:59.149Z,101611.28
2023-07-18T20:46:45.068Z,101628.72
2023-07-18T20:49:32.402Z,101623.06
2023-07-18T20:52:17.033Z,101623.91
2023-07-18T20:54:56.845Z,101624.53
2023-07-18T20:57:36.601Z,101630.13
2023-07-18T21:00:17.762Z,101624.59
2023-07-18T21:03:03.219Z,101619.78
2023-07-18T21:05:51.666Z,101615.38
2023-07-18T21:08:34.192Z,101609.69
2023-07-18T21:11:14.021Z,101611.06
2023-07-18T21:14:03.241Z,101613.78
2023-07-18T21:16:48.389Z,101621.84
2023-07-18T21:19:34.300Z,101605.34
2023-07-18T21:22:22.470Z,101616.47
2023-07-18T21:25:06.171Z,101607.84
2023-07-18T21:27:45.947Z,101607.00
2023-07-18T21:30:25.958Z,101608.59
2023-07-18T21:33:10.330Z,101605.97
2023-07-18T21:35:56.000Z,101605.69
2023-07-18T21:38:36.658Z,101602.50
2023-07-18T21:41:24.168Z,101593.63
2023-07-18T21:44:03.946Z,101595.91
2023-07-18T21:46:52.516Z,101596.50
2023-07-18T21:49:42.941Z,101590.09
2023-07-18T21:52:31.310Z,101594.41
2023-07-18T21:55:20.643Z,101587.44
2023-07-18T21:58:00.153Z,101583.78
2023-07-18T22:00:48.503Z,101587.19
2023-07-18T22:03:31.681Z,101579.28
2023-07-18T22:06:20.307Z,101588.50
2023-07-18T22:09:09.512Z,101587.34
2023-07-18T22:11:56.172Z,101583.88
2023-07-18T22:14:44.331Z,101582.94
2023-07-18T22:17:31.846Z,101582.81
2023-07-18T22:20:20.092Z,101587.31
2023-07-18T22:23:02.813Z,101580.91
2023-07-18T22:28:39.365Z,101581.69
2023-07-18T22:31:19.339Z,101579.34
2023-07-18T22:33:58.934Z,101583.84
2023-07-18T22:36:39.934Z,101571.97
2023-07-18T22:39:33.476Z,101573.31
2023-07-18T22:42:17.812Z,101576.22
2023-07-18T22:44:57.351Z,101569.09
2023-07-18T22:47:37.206Z,101572.16
2023-07-18T22:50:25.449Z,101567.22
2023-07-18T22:53:14.000Z,101568.72
2023-07-18T22:55:56.577Z,101558.66
2023-07-18T22:58:36.109Z,101564.09
2023-07-18T23:01:15.934Z,101556.78
2023-07-18T23:03:55.642Z,101556.00
2023-07-18T23:06:46.418Z,101555.13
2023-07-18T23:09:26.961Z,101562.50
2023-07-18T23:12:08.136Z,101556.22
2023-07-18T23:14:53.616Z,101554.84
2023-07-18T23:17:33.498Z,101553.53
2023-07-18T23:20:21.581Z,101556.25
2023-07-18T23:23:09.793Z,101561.03
2023-07-18T23:25:49.497Z,101557.28
2023-07-18T23:28:29.077Z,101556.72
2023-07-18T23:31:09.060Z,101548.03
2023-07-18T23:33:48.746Z,101547.66
2023-07-18T23:36:37.241Z,101542.88
2023-07-18T23:39:19.863Z,101541.00
2023-07-18T23:41:59.864Z,101545.78
2023-07-18T23:44:39.616Z,101535.06
2023-07-18T23:47:19.302Z,101536.09
2023-07-18T23:50:07.670Z,101544.09
2023-07-18T23:52:47.450Z,101531.50
2023-07-18T23:55:27.098Z,101533.47
2023-07-18T23:58:06.670Z,101543.34
